createdAt,value
2023-02-02T00:04:46.860Z,6.045963759406354
2023-02-02T00:11:09.127Z,6.049707357859532
2023-02-02T00:24:38.850Z,5.985872178093646
2023-02-02T00:30:59.964Z,5.8807502874163875
2023-02-02T00:38:24.939Z,5.88294706312709
2023-02-02T00:44:46.371Z,5.903129572533445
2023-02-02T00:51:07.624Z,5.771644413670568
2023-02-02T00:57:29.465Z,5.626697716346154
2023-02-02T01:05:37.625Z,5.567117605560201
2023-02-02T01:11:58.995Z,5.571664663461538
2023-02-02T01:18:20.597Z,5.428594664506689
2023-02-02T01:24:41.638Z,5.333369042642141
2023-02-02T01:31:02.917Z,5.2203438545150505
2023-02-02T01:41:45.930Z,5.359584030100335
2023-02-02T01:48:06.870Z,5.385046509197324
2023-02-02T01:54:28.435Z,5.416158679974917
2023-02-02T02:00:49.196Z,5.4882668791806015
2023-02-02T02:07:10.705Z,5.483698918269231
2023-02-02T02:13:33.487Z,5.4063643133361206
2023-02-02T02:19:55.475Z,5.316858277591973
2023-02-02T02:26:17.472Z,5.261040055392977
2023-02-02T02:37:46.422Z,5.107653767767559
2023-02-02T02:44:08.428Z,5.250814564172241
2023-02-02T02:50:30.227Z,5.370411789297659
2023-02-02T02:56:52.798Z,5.428406537416388
2023-02-02T03:03:15.815Z,5.399667511496656
2023-02-02T03:13:33.917Z,5.358964125209031
2023-02-02T03:19:55.816Z,5.44157020798495
2023-02-02T03:34:36.126Z,5.315047554347826
2023-02-02T03:40:58.184Z,5.190082174958194
2023-02-02T03:47:20.521Z,5.034788487667224
2023-02-02T03:53:42.370Z,4.9272300898829435
2023-02-02T04:00:03.937Z,4.845855978260869
2023-02-02T04:06:25.615Z,4.800403036162208
2023-02-02T04:14:49.117Z,4.6325557849080266
2023-02-02T04:21:10.635Z,4.534701609531773
2023-02-02T04:27:32.444Z,4.531996629389631
2023-02-02T04:33:54.343Z,4.626722538670569
2023-02-02T04:45:49.239Z,4.511838942307692
2023-02-02T04:54:12.094Z,4.450303093645485
2023-02-02T05:00:34.073Z,4.443593227424749
2023-02-02T05:06:55.738Z,4.467504311245819
2023-02-02T05:13:17.411Z,4.444316994147158
2023-02-02T05:23:26.188Z,4.385443013168896
2023-02-02T05:29:48.048Z,4.37913291701505
2023-02-02T05:37:36.421Z,4.359169889214046
2023-02-02T05:46:17.586Z,4.317324022784281
2023-02-02T05:52:38.936Z,4.327925768185619
2023-02-02T05:59:00.320Z,4.362747570025084
2023-02-02T06:05:22.572Z,4.365940504807692
2023-02-02T06:11:44.306Z,4.372018054974917
2023-02-02T06:18:05.980Z,4.395665891513378
2023-02-02T06:24:38.878Z,4.364962635869564
2023-02-02T06:31:00.681Z,4.368294706312709
2023-02-02T06:37:22.579Z,4.371142088210702
2023-02-02T06:43:44.195Z,4.365892819816053
2023-02-02T06:50:06.136Z,4.4055432169732445
2023-02-02T06:56:27.193Z,4.439204248536789
2023-02-02T07:02:48.128Z,4.43134210388796
2023-02-02T07:11:13.236Z,4.482076322115384
2023-02-02T07:17:37.024Z,4.442295281145485
2023-02-02T07:23:58.917Z,4.458815844481605
2023-02-02T07:31:05.851Z,4.555040891513378
2023-02-02T07:39:39.093Z,4.561202706939799
2023-02-02T07:48:00.754Z,4.657495688754181
2023-02-02T07:54:25.981Z,4.757303642349499
2023-02-02T08:00:50.836Z,4.841937970317726
2023-02-02T08:07:17.062Z,4.889825459866221
2023-02-02T08:19:31.596Z,4.9982036475752505
2023-02-02T08:31:02.239Z,5.1760908758361195
2023-02-02T08:43:24.088Z,5.326199963419732
2023-02-02T09:01:44.920Z,5.63749804034281
2023-02-02T09:08:47.643Z,5.823562264841137
2023-02-02T09:15:12.493Z,5.9475380173494985
2023-02-02T09:24:26.357Z,6.210416884406355
2023-02-02T09:38:13.321Z,6.367109113712375
2023-02-02T09:44:37.986Z,6.358799514005017
2023-02-02T09:51:02.035Z,6.312276599080268
2023-02-02T09:57:26.878Z,6.288666649247491
2023-02-02T10:05:38.961Z,6.422443953804349
2023-02-02T10:12:03.799Z,6.504596049331104
2023-02-02T10:25:48.193Z,6.588411893812709
2023-02-02T10:32:12.884Z,6.6746453020484955
2023-02-02T10:38:37.884Z,6.896852790551839
2023-02-02T10:57:17.505Z,6.535644204640468
2023-02-02T11:11:58.470Z,6.79957998014214
2023-02-02T11:18:23.995Z,6.741279525501673
2023-02-02T11:25:56.256Z,6.652335258152175
2023-02-02T11:33:19.612Z,6.952490071070233
2023-02-02T11:43:46.871Z,7.285083742683947
2023-02-02T11:53:30.175Z,7.03045568561873
2023-02-02T11:59:55.576Z,7.06397235576923
2023-02-02T12:06:20.659Z,7.122045490175586
2023-02-02T12:12:45.237Z,7.2716992840719055
2023-02-02T12:19:10.681Z,7.230547789506688
2023-02-02T12:25:35.032Z,7.518381584448161
2023-02-02T12:31:59.744Z,7.642009824414716
2023-02-02T12:38:24.769Z,7.590123980978261
2023-02-02T12:46:29.461Z,7.776956391095319
2023-02-02T12:52:53.811Z,7.905232284698997
2023-02-02T12:59:19.284Z,7.880228365384615
2023-02-02T13:05:43.566Z,7.9514815008361195
2023-02-02T13:12:08.224Z,8.134285508988294
2023-02-02T13:18:33.390Z,8.206210153637123
2023-02-02T13:25:00.012Z,8.217274378135452
2023-02-02T13:31:25.253Z,8.280620296822741
2023-02-02T13:37:50.046Z,8.223074963419734
2023-02-02T13:44:16.040Z,8.182686428720736
2023-02-02T13:50:40.756Z,8.093747387123747
2023-02-02T13:57:05.381Z,8.112733199205687
2023-02-02T14:03:30.172Z,8.1204522888796
2023-02-02T14:09:55.059Z,8.079675742056857
2023-02-02T14:16:20.290Z,8.115935279055185
2023-02-02T14:25:53.728Z,8.049719769021738
2023-02-02T14:32:42.832Z,8.049372909698995
2023-02-02T14:39:07.892Z,8.027748745819398
2023-02-02T14:45:33.483Z,7.91540551839465
2023-02-02T14:54:06.554Z,7.910890468227424
2023-02-02T15:00:32.255Z,7.8216274299749164
2023-02-02T15:37:14.879Z,7.41851418791806
2023-02-02T15:43:55.242Z,7.341161292851171
2023-02-02T15:50:20.576Z,7.3617318143812716
2023-02-02T16:01:09.991Z,7.2263110106605355
2023-02-02T16:07:32.208Z,7.134250235158864
2023-02-02T16:13:53.669Z,7.131223218018393
2023-02-02T16:21:54.466Z,7.135886548913042
2023-02-02T16:32:46.093Z,7.096096362876254
2023-02-02T16:39:09.066Z,6.98113764632107
2023-02-02T16:45:33.632Z,6.923555079431438
2023-02-02T16:51:56.231Z,6.901695756688963
2023-02-02T16:58:19.025Z,6.837134197324414
2023-02-02T17:04:40.953Z,6.79654120505853
2023-02-02T17:11:03.637Z,6.725874660326087
2023-02-02T17:23:08.611Z,6.488027801003345
2023-02-02T17:29:30.813Z,6.4238816889632115
2023-02-02T17:35:55.262Z,6.370098897366221
2023-02-02T17:42:18.086Z,6.347153924540134
2023-02-02T17:48:39.650Z,6.262920673076923
2023-02-02T17:59:59.542Z,6.149951661789298
2023-02-02T18:14:24.170Z,5.932014919523412
2023-02-02T18:20:45.392Z,5.912786109949834
2023-02-02T18:27:06.481Z,5.8662736465301
2023-02-02T18:33:31.555Z,5.761115175585284
2023-02-02T18:39:54.099Z,5.728865097198996
2023-02-02T18:46:14.871Z,5.68199075041806
2023-02-02T18:52:35.476Z,5.761407164506688
2023-02-02T18:59:26.757Z,5.755950825668896
2023-02-02T19:15:43.023Z,5.7404806385869565
2023-02-02T19:22:07.873Z,5.785375078386288
2023-02-02T19:30:29.039Z,5.6451511548913045
2023-02-02T19:42:13.672Z,5.617597721571907
2023-02-02T19:54:22.128Z,5.539818927675586
2023-02-02T20:01:50.093Z,5.466544732441471
2023-02-02T20:08:11.793Z,5.540609975961538
2023-02-02T20:17:34.882Z,5.519122988085284
2023-02-02T20:23:56.415Z,5.550868781354515
2023-02-02T20:30:17.844Z,5.5985576923076925
2023-02-02T20:36:39.019Z,5.753218410326086
2023-02-02T20:42:59.979Z,5.747222512541805
2023-02-02T20:49:21.307Z,5.739430915551839
2023-02-02T20:55:42.651Z,5.787143995610368
2023-02-02T21:02:04.403Z,5.8296607180183955
2023-02-02T21:08:26.932Z,5.8910371812290965
2023-02-02T21:14:54.107Z,5.934389370819399
2023-02-02T21:21:16.020Z,6.054396817516722
2023-02-02T21:27:37.146Z,6.128702445652174
2023-02-02T21:33:58.443Z,6.217039219272575
2023-02-02T21:42:16.963Z,6.324056751672241
2023-02-02T21:48:37.923Z,6.479492840719064
2023-02-02T21:54:58.840Z,6.611782765468226
2023-02-02T22:01:19.727Z,6.722527565844481
2023-02-02T22:14:29.020Z,6.984333847198997
2023-02-02T22:20:49.965Z,7.148102398620402
2023-02-02T22:28:14.114Z,7.278393473035118
2023-02-02T22:50:33.662Z,7.431357781145486
2023-02-02T22:56:55.773Z,7.489413931856187
2023-02-02T23:03:20.079Z,7.521743702968228
2023-02-02T23:19:35.054Z,7.609522627508362
2023-02-02T23:25:56.534Z,7.659943953804348
2023-02-02T23:32:19.269Z,7.71659633674749
2023-02-02T23:38:42.029Z,7.708253422867892
2023-02-02T23:49:02.677Z,7.8043360681438125
2023-02-02T23:55:25.187Z,7.7914545882107005
